sensor_id;sensor_type;location;lat;lon;timestamp;temperature;humidity
9941;DHT22;5009;50.656;7.188;2022-09-03T00:02:11;16.80;91.30
9941;DHT22;5009;50.656;7.188;2022-09-03T00:04:41;16.80;91.80
9941;DHT22;5009;50.656;7.188;2022-09-03T00:07:18;16.70;91.70
9941;DHT22;5009;50.656;7.188;2022-09-03T00:09:50;16.70;91.80
9941;DHT22;5009;50.656;7.188;2022-09-03T00:12:23;16.70;92.00
9941;DHT22;5009;50.656;7.188;2022-09-03T00:14:56;16.70;92.30
9941;DHT22;5009;50.656;7.188;2022-09-03T00:17:26;16.70;92.40
9941;DHT22;5009;50.656;7.188;2022-09-03T00:19:54;16.60;93.00
9941;DHT22;5009;50.656;7.188;2022-09-03T00:22:32;16.50;93.40
9941;DHT22;5009;50.656;7.188;2022-09-03T00:25:03;16.50;93.50
9941;DHT22;5009;50.656;7.188;2022-09-03T00:27:32;16.50;93.60
9941;DHT22;5009;50.656;7.188;2022-09-03T00:30:05;16.40;93.60
9941;DHT22;5009;50.656;7.188;2022-09-03T00:35:25;16.40;93.90
9941;DHT22;5009;50.656;7.188;2022-09-03T00:37:52;16.30;94.30
9941;DHT22;5009;50.656;7.188;2022-09-03T00:43:54;16.30;94.10
9941;DHT22;5009;50.656;7.188;2022-09-03T00:46:40;16.30;93.60
9941;DHT22;5009;50.656;7.188;2022-09-03T00:55:11;16.20;94.10
9941;DHT22;5009;50.656;7.188;2022-09-03T00:57:57;16.20;94.10
9941;DHT22;5009;50.656;7.188;2022-09-03T01:00:23;16.20;94.40
9941;DHT22;5009;50.656;7.188;2022-09-03T01:11:23;16.20;93.90
9941;DHT22;5009;50.656;7.188;2022-09-03T01:16:55;16.20;93.80
9941;DHT22;5009;50.656;7.188;2022-09-03T01:22:13;16.20;93.80
9941;DHT22;5009;50.656;7.188;2022-09-03T01:30:14;16.00;96.10
9941;DHT22;5009;50.656;7.188;2022-09-03T01:33:12;15.90;96.60
9941;DHT22;5009;50.656;7.188;2022-09-03T01:35:53;15.90;96.20
9941;DHT22;5009;50.656;7.188;2022-09-03T01:38:46;15.80;96.60
9941;DHT22;5009;50.656;7.188;2022-09-03T01:41:47;15.80;96.60
9941;DHT22;5009;50.656;7.188;2022-09-03T01:48:07;15.70;96.20
9941;DHT22;5009;50.656;7.188;2022-09-03T01:53:12;15.80;94.90
9941;DHT22;5009;50.656;7.188;2022-09-03T01:55:59;15.80;94.90
9941;DHT22;5009;50.656;7.188;2022-09-03T01:58:50;15.80;95.40
9941;DHT22;5009;50.656;7.188;2022-09-03T02:01:25;15.80;94.70
9941;DHT22;5009;50.656;7.188;2022-09-03T02:03:53;15.80;95.30
9941;DHT22;5009;50.656;7.188;2022-09-03T02:06:27;15.90;95.20
9941;DHT22;5009;50.656;7.188;2022-09-03T02:08:56;15.90;95.00
9941;DHT22;5009;50.656;7.188;2022-09-03T02:11:22;15.90;95.10
9941;DHT22;5009;50.656;7.188;2022-09-03T02:13:53;15.80;94.80
9941;DHT22;5009;50.656;7.188;2022-09-03T02:16:26;15.90;94.60
9941;DHT22;5009;50.656;7.188;2022-09-03T02:18:58;15.80;94.90
9941;DHT22;5009;50.656;7.188;2022-09-03T02:21:30;15.90;94.60
9941;DHT22;5009;50.656;7.188;2022-09-03T02:23:57;15.90;94.40
9941;DHT22;5009;50.656;7.188;2022-09-03T02:26:23;15.90;94.00
9941;DHT22;5009;50.656;7.188;2022-09-03T02:28:50;15.90;93.40
9941;DHT22;5009;50.656;7.188;2022-09-03T02:31:16;16.00;93.10
9941;DHT22;5009;50.656;7.188;2022-09-03T02:33:45;16.00;92.80
9941;DHT22;5009;50.656;7.188;2022-09-03T02:36:13;16.00;92.70
9941;DHT22;5009;50.656;7.188;2022-09-03T02:38:41;16.00;93.40
9941;DHT22;5009;50.656;7.188;2022-09-03T02:41:08;15.90;94.00
9941;DHT22;5009;50.656;7.188;2022-09-03T02:43:53;15.90;94.20
9941;DHT22;5009;50.656;7.188;2022-09-03T02:46:23;15.90;93.60
9941;DHT22;5009;50.656;7.188;2022-09-03T02:48:51;15.90;94.20
9941;DHT22;5009;50.656;7.188;2022-09-03T02:51:17;15.90;94.20
9941;DHT22;5009;50.656;7.188;2022-09-03T02:53:43;16.00;93.70
9941;DHT22;5009;50.656;7.188;2022-09-03T02:56:08;16.00;93.40
9941;DHT22;5009;50.656;7.188;2022-09-03T02:58:34;16.00;93.10
9941;DHT22;5009;50.656;7.188;2022-09-03T03:00:59;16.00;92.20
9941;DHT22;5009;50.656;7.188;2022-09-03T03:03:25;16.00;93.10
9941;DHT22;5009;50.656;7.188;2022-09-03T03:05:53;16.00;92.90
9941;DHT22;5009;50.656;7.188;2022-09-03T03:08:24;16.10;93.20
9941;DHT22;5009;50.656;7.188;2022-09-03T03:10:53;16.10;92.80
9941;DHT22;5009;50.656;7.188;2022-09-03T03:13:21;16.10;92.50
9941;DHT22;5009;50.656;7.188;2022-09-03T03:15:47;16.10;92.40
9941;DHT22;5009;50.656;7.188;2022-09-03T03:18:13;16.20;92.30
9941;DHT22;5009;50.656;7.188;2022-09-03T03:20:40;16.20;92.10
9941;DHT22;5009;50.656;7.188;2022-09-03T03:23:06;16.20;92.10
9941;DHT22;5009;50.656;7.188;2022-09-03T03:25:33;16.10;92.50
9941;DHT22;5009;50.656;7.188;2022-09-03T03:27:59;16.10;92.80
9941;DHT22;5009;50.656;7.188;2022-09-03T03:30:25;16.10;92.90
9941;DHT22;5009;50.656;7.188;2022-09-03T03:32:52;16.20;92.80
9941;DHT22;5009;50.656;7.188;2022-09-03T03:35:18;16.20;92.60
9941;DHT22;5009;50.656;7.188;2022-09-03T03:37:44;16.20;92.50
9941;DHT22;5009;50.656;7.188;2022-09-03T03:40:10;16.20;93.00
9941;DHT22;5009;50.656;7.188;2022-09-03T03:42:36;16.20;93.00
9941;DHT22;5009;50.656;7.188;2022-09-03T03:45:03;16.30;93.00
9941;DHT22;5009;50.656;7.188;2022-09-03T03:47:29;16.30;93.00
9941;DHT22;5009;50.656;7.188;2022-09-03T03:49:58;16.30;93.00
9941;DHT22;5009;50.656;7.188;2022-09-03T03:52:24;16.30;92.80
9941;DHT22;5009;50.656;7.188;2022-09-03T03:54:50;16.30;92.80
9941;DHT22;5009;50.656;7.188;2022-09-03T03:57:17;16.30;92.70
9941;DHT22;5009;50.656;7.188;2022-09-03T03:59:46;16.40;92.70
9941;DHT22;5009;50.656;7.188;2022-09-03T04:02:12;16.30;92.90
9941;DHT22;5009;50.656;7.188;2022-09-03T04:04:38;16.30;92.80
9941;DHT22;5009;50.656;7.188;2022-09-03T04:07:03;16.30;92.70
9941;DHT22;5009;50.656;7.188;2022-09-03T04:09:29;16.30;92.60
9941;DHT22;5009;50.656;7.188;2022-09-03T04:11:55;16.30;92.50
9941;DHT22;5009;50.656;7.188;2022-09-03T04:14:24;16.30;92.40
9941;DHT22;5009;50.656;7.188;2022-09-03T04:16:49;16.40;92.50
9941;DHT22;5009;50.656;7.188;2022-09-03T04:19:16;16.40;92.50
9941;DHT22;5009;50.656;7.188;2022-09-03T04:21:42;16.40;92.50
9941;DHT22;5009;50.656;7.188;2022-09-03T04:24:08;16.40;92.80
9941;DHT22;5009;50.656;7.188;2022-09-03T04:26:34;16.40;92.70
9941;DHT22;5009;50.656;7.188;2022-09-03T04:29:02;16.40;92.80
9941;DHT22;5009;50.656;7.188;2022-09-03T04:31:28;16.40;93.00
9941;DHT22;5009;50.656;7.188;2022-09-03T04:33:54;16.40;93.00
9941;DHT22;5009;50.656;7.188;2022-09-03T04:36:21;16.40;92.70
9941;DHT22;5009;50.656;7.188;2022-09-03T04:38:49;16.40;92.70
9941;DHT22;5009;50.656;7.188;2022-09-03T04:41:20;16.40;92.70
9941;DHT22;5009;50.656;7.188;2022-09-03T04:43:46;16.40;92.70
9941;DHT22;5009;50.656;7.188;2022-09-03T04:46:13;16.40;92.70
9941;DHT22;5009;50.656;7.188;2022-09-03T04:48:39;16.40;92.70
9941;DHT22;5009;50.656;7.188;2022-09-03T04:51:13;16.40;92.80
9941;DHT22;5009;50.656;7.188;2022-09-03T04:53:41;16.30;92.80
9941;DHT22;5009;50.656;7.188;2022-09-03T04:56:22;16.40;92.80
9941;DHT22;5009;50.656;7.188;2022-09-03T04:58:53;16.40;93.00
9941;DHT22;5009;50.656;7.188;2022-09-03T05:01:21;16.50;93.00
9941;DHT22;5009;50.656;7.188;2022-09-03T05:03:47;16.40;93.10
9941;DHT22;5009;50.656;7.188;2022-09-03T05:06:13;16.50;93.20
9941;DHT22;5009;50.656;7.188;2022-09-03T05:08:41;16.50;93.20
9941;DHT22;5009;50.656;7.188;2022-09-03T05:11:08;16.60;93.20
9941;DHT22;5009;50.656;7.188;2022-09-03T05:13:34;16.50;92.90
9941;DHT22;5009;50.656;7.188;2022-09-03T05:16:03;16.60;92.60
9941;DHT22;5009;50.656;7.188;2022-09-03T05:18:30;16.60;92.10
9941;DHT22;5009;50.656;7.188;2022-09-03T05:21:04;16.60;90.60
9941;DHT22;5009;50.656;7.188;2022-09-03T05:23:31;16.70;90.40
9941;DHT22;5009;50.656;7.188;2022-09-03T05:25:58;16.70;90.20
9941;DHT22;5009;50.656;7.188;2022-09-03T05:28:25;16.80;90.30
9941;DHT22;5009;50.656;7.188;2022-09-03T05:31:03;16.90;90.30
9941;DHT22;5009;50.656;7.188;2022-09-03T05:33:31;16.90;90.30
9941;DHT22;5009;50.656;7.188;2022-09-03T05:36:05;17.00;89.80
9941;DHT22;5009;50.656;7.188;2022-09-03T05:38:31;17.00;88.10
9941;DHT22;5009;50.656;7.188;2022-09-03T05:41:01;17.10;88.10
9941;DHT22;5009;50.656;7.188;2022-09-03T05:43:29;17.20;87.20
9941;DHT22;5009;50.656;7.188;2022-09-03T05:45:59;17.20;86.90
9941;DHT22;5009;50.656;7.188;2022-09-03T05:48:35;17.20;86.20
9941;DHT22;5009;50.656;7.188;2022-09-03T05:53:29;17.40;84.80
9941;DHT22;5009;50.656;7.188;2022-09-03T05:55:59;17.60;84.00
9941;DHT22;5009;50.656;7.188;2022-09-03T05:58:33;17.60;83.10
9941;DHT22;5009;50.656;7.188;2022-09-03T06:00:59;17.70;82.50
9941;DHT22;5009;50.656;7.188;2022-09-03T06:03:25;17.70;81.90
9941;DHT22;5009;50.656;7.188;2022-09-03T06:05:51;17.70;81.10
9941;DHT22;5009;50.656;7.188;2022-09-03T06:08:17;17.80;81.50
9941;DHT22;5009;50.656;7.188;2022-09-03T06:10:43;17.90;80.90
9941;DHT22;5009;50.656;7.188;2022-09-03T06:13:08;18.00;80.50
9941;DHT22;5009;50.656;7.188;2022-09-03T06:15:34;18.10;80.00
9941;DHT22;5009;50.656;7.188;2022-09-03T06:18:00;18.10;79.20
9941;DHT22;5009;50.656;7.188;2022-09-03T06:20:25;18.20;78.80
9941;DHT22;5009;50.656;7.188;2022-09-03T06:22:56;18.30;78.00
9941;DHT22;5009;50.656;7.188;2022-09-03T06:25:21;18.40;77.90
9941;DHT22;5009;50.656;7.188;2022-09-03T06:27:47;18.60;77.70
9941;DHT22;5009;50.656;7.188;2022-09-03T06:30:13;18.70;77.40
9941;DHT22;5009;50.656;7.188;2022-09-03T06:32:44;18.70;76.60
9941;DHT22;5009;50.656;7.188;2022-09-03T06:35:10;18.70;77.50
9941;DHT22;5009;50.656;7.188;2022-09-03T06:37:39;18.80;76.60
9941;DHT22;5009;50.656;7.188;2022-09-03T06:40:05;18.80;76.60
9941;DHT22;5009;50.656;7.188;2022-09-03T06:42:35;18.80;76.30
9941;DHT22;5009;50.656;7.188;2022-09-03T06:45:01;18.70;75.80
9941;DHT22;5009;50.656;7.188;2022-09-03T06:47:27;18.70;75.80
9941;DHT22;5009;50.656;7.188;2022-09-03T06:49:53;18.80;76.40
9941;DHT22;5009;50.656;7.188;2022-09-03T06:52:18;18.80;76.60
9941;DHT22;5009;50.656;7.188;2022-09-03T06:54:44;18.70;76.30
9941;DHT22;5009;50.656;7.188;2022-09-03T06:57:09;18.60;76.10
9941;DHT22;5009;50.656;7.188;2022-09-03T06:59:35;18.50;76.50
9941;DHT22;5009;50.656;7.188;2022-09-03T07:02:00;18.40;79.30
9941;DHT22;5009;50.656;7.188;2022-09-03T07:04:27;18.30;80.80
9941;DHT22;5009;50.656;7.188;2022-09-03T07:06:53;18.30;84.00
9941;DHT22;5009;50.656;7.188;2022-09-03T07:09:19;18.20;87.20
9941;DHT22;5009;50.656;7.188;2022-09-03T07:11:44;18.10;90.60
9941;DHT22;5009;50.656;7.188;2022-09-03T07:14:14;18.00;91.00
9941;DHT22;5009;50.656;7.188;2022-09-03T07:16:40;18.00;91.80
9941;DHT22;5009;50.656;7.188;2022-09-03T07:19:09;18.00;92.70
9941;DHT22;5009;50.656;7.188;2022-09-03T07:21:35;18.00;93.10
9941;DHT22;5009;50.656;7.188;2022-09-03T07:24:02;18.00;92.60
9941;DHT22;5009;50.656;7.188;2022-09-03T07:26:31;17.90;93.30
9941;DHT22;5009;50.656;7.188;2022-09-03T07:28:58;17.80;93.20
9941;DHT22;5009;50.656;7.188;2022-09-03T07:31:30;17.70;93.60
9941;DHT22;5009;50.656;7.188;2022-09-03T07:33:58;17.80;93.60
9941;DHT22;5009;50.656;7.188;2022-09-03T07:36:25;17.80;93.90
9941;DHT22;5009;50.656;7.188;2022-09-03T07:38:54;17.80;93.40
9941;DHT22;5009;50.656;7.188;2022-09-03T07:41:20;17.70;94.10
9941;DHT22;5009;50.656;7.188;2022-09-03T07:43:47;17.60;94.00
9941;DHT22;5009;50.656;7.188;2022-09-03T07:46:15;17.50;95.00
9941;DHT22;5009;50.656;7.188;2022-09-03T07:48:46;17.60;96.20
9941;DHT22;5009;50.656;7.188;2022-09-03T07:51:13;17.50;96.50
9941;DHT22;5009;50.656;7.188;2022-09-03T07:53:39;17.50;95.50
9941;DHT22;5009;50.656;7.188;2022-09-03T07:56:06;17.50;95.80
9941;DHT22;5009;50.656;7.188;2022-09-03T07:58:33;17.50;95.30
9941;DHT22;5009;50.656;7.188;2022-09-03T08:01:10;17.60;95.50
9941;DHT22;5009;50.656;7.188;2022-09-03T08:03:37;17.60;95.60
9941;DHT22;5009;50.656;7.188;2022-09-03T08:06:06;17.60;95.70
9941;DHT22;5009;50.656;7.188;2022-09-03T08:08:33;17.60;96.60
9941;DHT22;5009;50.656;7.188;2022-09-03T08:11:08;17.70;96.40
9941;DHT22;5009;50.656;7.188;2022-09-03T08:13:36;17.70;95.70
9941;DHT22;5009;50.656;7.188;2022-09-03T08:16:02;17.80;95.90
9941;DHT22;5009;50.656;7.188;2022-09-03T08:18:30;17.80;96.60
9941;DHT22;5009;50.656;7.188;2022-09-03T08:20:59;17.90;97.60
9941;DHT22;5009;50.656;7.188;2022-09-03T08:23:25;18.00;97.20
9941;DHT22;5009;50.656;7.188;2022-09-03T08:26:00;18.10;96.80
9941;DHT22;5009;50.656;7.188;2022-09-03T08:28:26;18.20;96.50
9941;DHT22;5009;50.656;7.188;2022-09-03T08:30:52;18.30;95.90
9941;DHT22;5009;50.656;7.188;2022-09-03T08:33:18;18.30;95.40
9941;DHT22;5009;50.656;7.188;2022-09-03T08:36:07;18.30;95.60
9941;DHT22;5009;50.656;7.188;2022-09-03T08:38:33;18.30;95.20
9941;DHT22;5009;50.656;7.188;2022-09-03T08:46:56;18.60;95.60
9941;DHT22;5009;50.656;7.188;2022-09-03T08:57:47;19.20;94.00
9941;DHT22;5009;50.656;7.188;2022-09-03T09:00:13;19.30;93.40
9941;DHT22;5009;50.656;7.188;2022-09-03T09:02:51;19.50;93.60
9941;DHT22;5009;50.656;7.188;2022-09-03T09:05:40;19.60;93.40
9941;DHT22;5009;50.656;7.188;2022-09-03T09:10:42;19.70;93.00
9941;DHT22;5009;50.656;7.188;2022-09-03T09:13:35;19.80;92.50
9941;DHT22;5009;50.656;7.188;2022-09-03T09:16:19;19.80;92.20
9941;DHT22;5009;50.656;7.188;2022-09-03T09:21:44;19.80;91.30
9941;DHT22;5009;50.656;7.188;2022-09-03T09:24:28;19.80;90.80
9941;DHT22;5009;50.656;7.188;2022-09-03T09:26:58;19.70;90.60
9941;DHT22;5009;50.656;7.188;2022-09-03T09:29:31;19.70;91.00
9941;DHT22;5009;50.656;7.188;2022-09-03T09:31:57;19.70;91.10
9941;DHT22;5009;50.656;7.188;2022-09-03T09:34:23;19.70;90.70
9941;DHT22;5009;50.656;7.188;2022-09-03T09:36:54;19.80;90.80
9941;DHT22;5009;50.656;7.188;2022-09-03T09:39:21;19.80;90.40
9941;DHT22;5009;50.656;7.188;2022-09-03T09:42:16;19.80;90.40
9941;DHT22;5009;50.656;7.188;2022-09-03T09:44:45;20.00;90.10
9941;DHT22;5009;50.656;7.188;2022-09-03T09:47:20;20.10;90.40
9941;DHT22;5009;50.656;7.188;2022-09-03T09:49:58;20.20;90.20
9941;DHT22;5009;50.656;7.188;2022-09-03T09:52:25;20.40;90.50
9941;DHT22;5009;50.656;7.188;2022-09-03T09:55:14;20.50;90.10
9941;DHT22;5009;50.656;7.188;2022-09-03T09:57:40;20.60;90.20
9941;DHT22;5009;50.656;7.188;2022-09-03T10:00:12;20.90;90.30
9941;DHT22;5009;50.656;7.188;2022-09-03T10:02:40;21.30;88.80
9941;DHT22;5009;50.656;7.188;2022-09-03T10:05:31;21.50;87.30
9941;DHT22;5009;50.656;7.188;2022-09-03T10:08:17;21.60;86.30
9941;DHT22;5009;50.656;7.188;2022-09-03T10:10:48;21.80;85.70
9941;DHT22;5009;50.656;7.188;2022-09-03T10:13:23;22.10;84.80
9941;DHT22;5009;50.656;7.188;2022-09-03T10:16:18;22.40;84.30
9941;DHT22;5009;50.656;7.188;2022-09-03T10:18:59;22.40;82.90
9941;DHT22;5009;50.656;7.188;2022-09-03T10:21:39;22.30;82.10
9941;DHT22;5009;50.656;7.188;2022-09-03T10:26:54;21.80;83.40
9941;DHT22;5009;50.656;7.188;2022-09-03T10:29:22;21.60;83.70
9941;DHT22;5009;50.656;7.188;2022-09-03T10:34:47;21.90;84.70
9941;DHT22;5009;50.656;7.188;2022-09-03T10:37:28;21.90;84.00
9941;DHT22;5009;50.656;7.188;2022-09-03T10:43:08;21.70;84.30
9941;DHT22;5009;50.656;7.188;2022-09-03T10:46:02;21.90;85.00
9941;DHT22;5009;50.656;7.188;2022-09-03T10:48:47;21.80;84.80
9941;DHT22;5009;50.656;7.188;2022-09-03T11:04:45;22.10;85.50
9941;DHT22;5009;50.656;7.188;2022-09-03T11:07:16;22.10;84.90
9941;DHT22;5009;50.656;7.188;2022-09-03T11:09:55;22.10;85.10
9941;DHT22;5009;50.656;7.188;2022-09-03T11:12:37;22.40;86.10
9941;DHT22;5009;50.656;7.188;2022-09-03T11:15:14;22.30;85.30
9941;DHT22;5009;50.656;7.188;2022-09-03T11:17:48;22.40;85.60
9941;DHT22;5009;50.656;7.188;2022-09-03T11:20:23;22.40;86.10
9941;DHT22;5009;50.656;7.188;2022-09-03T11:22:52;22.50;85.40
9941;DHT22;5009;50.656;7.188;2022-09-03T11:25:19;22.70;85.40
9941;DHT22;5009;50.656;7.188;2022-09-03T11:30:46;22.70;85.20
9941;DHT22;5009;50.656;7.188;2022-09-03T11:33:18;22.70;85.50
9941;DHT22;5009;50.656;7.188;2022-09-03T11:35:45;22.80;85.90
9941;DHT22;5009;50.656;7.188;2022-09-03T11:41:02;23.30;85.70
9941;DHT22;5009;50.656;7.188;2022-09-03T11:43:32;23.50;85.00
9941;DHT22;5009;50.656;7.188;2022-09-03T11:46:13;23.60;84.40
9941;DHT22;5009;50.656;7.188;2022-09-03T11:49:52;23.60;84.30
9941;DHT22;5009;50.656;7.188;2022-09-03T11:52:02;23.50;83.70
9941;DHT22;5009;50.656;7.188;2022-09-03T11:54:31;23.30;84.00
9941;DHT22;5009;50.656;7.188;2022-09-03T11:57:15;23.20;85.10
9941;DHT22;5009;50.656;7.188;2022-09-03T11:59:46;23.10;85.70
9941;DHT22;5009;50.656;7.188;2022-09-03T12:02:26;23.10;85.90
9941;DHT22;5009;50.656;7.188;2022-09-03T12:05:11;23.20;85.90
9941;DHT22;5009;50.656;7.188;2022-09-03T12:13:48;23.60;84.40
9941;DHT22;5009;50.656;7.188;2022-09-03T12:19:27;23.90;83.90
9941;DHT22;5009;50.656;7.188;2022-09-03T12:21:56;23.90;84.30
9941;DHT22;5009;50.656;7.188;2022-09-03T12:24:23;23.90;84.10
9941;DHT22;5009;50.656;7.188;2022-09-03T12:26:50;24.00;84.70
9941;DHT22;5009;50.656;7.188;2022-09-03T12:29:22;24.00;84.30
9941;DHT22;5009;50.656;7.188;2022-09-03T12:31:48;24.00;83.40
9941;DHT22;5009;50.656;7.188;2022-09-03T12:34:19;23.90;84.00
9941;DHT22;5009;50.656;7.188;2022-09-03T12:36:47;23.90;84.40
9941;DHT22;5009;50.656;7.188;2022-09-03T12:39:16;23.90;84.50
9941;DHT22;5009;50.656;7.188;2022-09-03T12:44:31;24.00;83.50
9941;DHT22;5009;50.656;7.188;2022-09-03T12:49:26;24.00;83.70
9941;DHT22;5009;50.656;7.188;2022-09-03T12:51:59;24.10;82.80
9941;DHT22;5009;50.656;7.188;2022-09-03T12:54:26;24.20;82.80
9941;DHT22;5009;50.656;7.188;2022-09-03T12:56:57;24.30;83.00
9941;DHT22;5009;50.656;7.188;2022-09-03T12:59:26;24.40;83.00
9941;DHT22;5009;50.656;7.188;2022-09-03T13:01:55;24.50;81.70
9941;DHT22;5009;50.656;7.188;2022-09-03T13:04:28;24.50;81.60
9941;DHT22;5009;50.656;7.188;2022-09-03T13:07:19;24.60;80.80
9941;DHT22;5009;50.656;7.188;2022-09-03T13:09:46;24.50;80.60
9941;DHT22;5009;50.656;7.188;2022-09-03T13:12:31;24.40;81.20
9941;DHT22;5009;50.656;7.188;2022-09-03T13:14:57;24.30;80.80
9941;DHT22;5009;50.656;7.188;2022-09-03T13:17:39;24.20;81.30
9941;DHT22;5009;50.656;7.188;2022-09-03T13:25:40;24.10;82.10
9941;DHT22;5009;50.656;7.188;2022-09-03T13:28:31;24.30;82.90
9941;DHT22;5009;50.656;7.188;2022-09-03T13:31:34;24.40;82.60
9941;DHT22;5009;50.656;7.188;2022-09-03T13:39:59;24.40;81.70
9941;DHT22;5009;50.656;7.188;2022-09-03T13:42:41;24.40;82.30
9941;DHT22;5009;50.656;7.188;2022-09-03T13:47:51;24.50;82.10
9941;DHT22;5009;50.656;7.188;2022-09-03T13:50:47;24.50;82.00
9941;DHT22;5009;50.656;7.188;2022-09-03T13:56:33;24.60;81.60
9941;DHT22;5009;50.656;7.188;2022-09-03T13:59:18;24.40;81.30
9941;DHT22;5009;50.656;7.188;2022-09-03T14:02:09;24.60;82.40
9941;DHT22;5009;50.656;7.188;2022-09-03T14:07:50;24.70;81.00
9941;DHT22;5009;50.656;7.188;2022-09-03T14:16:07;24.60;80.40
9941;DHT22;5009;50.656;7.188;2022-09-03T14:18:44;24.70;80.40
9941;DHT22;5009;50.656;7.188;2022-09-03T14:21:18;24.70;80.30
9941;DHT22;5009;50.656;7.188;2022-09-03T14:26:31;24.80;80.20
9941;DHT22;5009;50.656;7.188;2022-09-03T14:28:59;24.80;80.40
9941;DHT22;5009;50.656;7.188;2022-09-03T14:32:01;24.90;79.60
9941;DHT22;5009;50.656;7.188;2022-09-03T14:40:21;25.00;78.90
9941;DHT22;5009;50.656;7.188;2022-09-03T14:43:12;25.10;78.90
9941;DHT22;5009;50.656;7.188;2022-09-03T15:02:27;25.20;78.60
9941;DHT22;5009;50.656;7.188;2022-09-03T15:05:14;25.20;78.80
9941;DHT22;5009;50.656;7.188;2022-09-03T15:07:50;25.30;78.60
9941;DHT22;5009;50.656;7.188;2022-09-03T15:10:30;25.30;78.50
9941;DHT22;5009;50.656;7.188;2022-09-03T15:13:00;25.20;77.90
9941;DHT22;5009;50.656;7.188;2022-09-03T15:22:03;25.20;78.90
9941;DHT22;5009;50.656;7.188;2022-09-03T15:24:42;25.10;78.80
9941;DHT22;5009;50.656;7.188;2022-09-03T15:27:50;25.00;79.10
9941;DHT22;5009;50.656;7.188;2022-09-03T15:30:18;24.90;81.90
9941;DHT22;5009;50.656;7.188;2022-09-03T15:35:57;24.40;91.40
9941;DHT22;5009;50.656;7.188;2022-09-03T15:41:22;23.90;95.20
9941;DHT22;5009;50.656;7.188;2022-09-03T15:43:50;23.60;96.80
9941;DHT22;5009;50.656;7.188;2022-09-03T15:49:09;23.40;98.30
9941;DHT22;5009;50.656;7.188;2022-09-03T15:51:54;23.10;99.30
9941;DHT22;5009;50.656;7.188;2022-09-03T15:54:35;22.90;99.90
9941;DHT22;5009;50.656;7.188;2022-09-03T15:57:27;22.60;99.90
9941;DHT22;5009;50.656;7.188;2022-09-03T16:00:00;22.20;99.90
9941;DHT22;5009;50.656;7.188;2022-09-03T16:02:33;21.80;99.90
9941;DHT22;5009;50.656;7.188;2022-09-03T16:05:27;21.60;99.90
9941;DHT22;5009;50.656;7.188;2022-09-03T16:13:44;21.30;99.90
9941;DHT22;5009;50.656;7.188;2022-09-03T16:18:55;21.30;99.90
9941;DHT22;5009;50.656;7.188;2022-09-03T16:21:35;21.20;99.90
9941;DHT22;5009;50.656;7.188;2022-09-03T16:24:08;21.20;99.90
9941;DHT22;5009;50.656;7.188;2022-09-03T16:29:20;20.70;99.90
9941;DHT22;5009;50.656;7.188;2022-09-03T16:34:34;20.50;99.90
9941;DHT22;5009;50.656;7.188;2022-09-03T16:37:21;20.50;99.90
9941;DHT22;5009;50.656;7.188;2022-09-03T16:42:39;20.20;99.90
9941;DHT22;5009;50.656;7.188;2022-09-03T16:45:29;20.00;99.90
9941;DHT22;5009;50.656;7.188;2022-09-03T16:48:53;19.90;99.90
9941;DHT22;5009;50.656;7.188;2022-09-03T16:51:13;19.90;99.90
9941;DHT22;5009;50.656;7.188;2022-09-03T16:56:29;19.70;99.90
9941;DHT22;5009;50.656;7.188;2022-09-03T16:59:06;19.70;99.90
9941;DHT22;5009;50.656;7.188;2022-09-03T17:15:50;19.90;99.90
9941;DHT22;5009;50.656;7.188;2022-09-03T17:18:45;19.90;99.90
9941;DHT22;5009;50.656;7.188;2022-09-03T17:21:41;20.00;99.90
9941;DHT22;5009;50.656;7.188;2022-09-03T17:46:46;20.00;99.90
9941;DHT22;5009;50.656;7.188;2022-09-03T17:49:24;20.00;99.90
9941;DHT22;5009;50.656;7.188;2022-09-03T17:54:46;19.90;99.90
9941;DHT22;5009;50.656;7.188;2022-09-03T17:59:55;20.10;99.90
9941;DHT22;5009;50.656;7.188;2022-09-03T18:02:32;20.10;99.90
9941;DHT22;5009;50.656;7.188;2022-09-03T18:05:24;20.10;99.90
9941;DHT22;5009;50.656;7.188;2022-09-03T18:10:40;20.10;99.90
9941;DHT22;5009;50.656;7.188;2022-09-03T18:16:16;20.00;99.90
9941;DHT22;5009;50.656;7.188;2022-09-03T18:18:46;19.90;99.90
9941;DHT22;5009;50.656;7.188;2022-09-03T18:21:22;19.90;99.90
9941;DHT22;5009;50.656;7.188;2022-09-03T18:24:29;19.80;99.90
9941;DHT22;5009;50.656;7.188;2022-09-03T18:27:35;19.70;99.90
9941;DHT22;5009;50.656;7.188;2022-09-03T18:30:19;19.60;99.90
9941;DHT22;5009;50.656;7.188;2022-09-03T18:33:03;19.60;99.90
9941;DHT22;5009;50.656;7.188;2022-09-03T18:35:47;19.50;99.90
9941;DHT22;5009;50.656;7.188;2022-09-03T18:38:34;19.50;99.90
9941;DHT22;5009;50.656;7.188;2022-09-03T18:48:13;19.30;99.90
9941;DHT22;5009;50.656;7.188;2022-09-03T18:56:50;19.20;99.90
9941;DHT22;5009;50.656;7.188;2022-09-03T19:02:55;19.10;99.90
9941;DHT22;5009;50.656;7.188;2022-09-03T19:08:38;19.00;99.90
9941;DHT22;5009;50.656;7.188;2022-09-03T19:11:45;18.90;99.90
9941;DHT22;5009;50.656;7.188;2022-09-03T19:14:59;18.90;99.90
9941;DHT22;5009;50.656;7.188;2022-09-03T19:23:59;18.80;99.90
9941;DHT22;5009;50.656;7.188;2022-09-03T19:30:04;18.80;99.90
9941;DHT22;5009;50.656;7.188;2022-09-03T19:32:53;18.70;99.90
9941;DHT22;5009;50.656;7.188;2022-09-03T19:42:37;18.70;99.90
9941;DHT22;5009;50.656;7.188;2022-09-03T19:54:49;18.60;99.90
9941;DHT22;5009;50.656;7.188;2022-09-03T19:57:34;18.60;99.90
9941;DHT22;5009;50.656;7.188;2022-09-03T20:00:18;18.60;99.90
9941;DHT22;5009;50.656;7.188;2022-09-03T20:03:04;18.50;99.90
9941;DHT22;5009;50.656;7.188;2022-09-03T20:05:49;18.50;99.90
9941;DHT22;5009;50.656;7.188;2022-09-03T20:08:34;18.40;99.90
9941;DHT22;5009;50.656;7.188;2022-09-03T20:11:20;18.40;99.90
9941;DHT22;5009;50.656;7.188;2022-09-03T20:13:47;18.40;99.90
9941;DHT22;5009;50.656;7.188;2022-09-03T20:16:56;18.40;99.90
9941;DHT22;5009;50.656;7.188;2022-09-03T20:19:46;18.30;99.90
9941;DHT22;5009;50.656;7.188;2022-09-03T20:22:27;18.20;99.90
9941;DHT22;5009;50.656;7.188;2022-09-03T20:25:06;18.30;99.90
9941;DHT22;5009;50.656;7.188;2022-09-03T20:27:54;18.30;99.90
9941;DHT22;5009;50.656;7.188;2022-09-03T20:31:12;18.30;99.90
9941;DHT22;5009;50.656;7.188;2022-09-03T20:50:35;17.90;99.90
9941;DHT22;5009;50.656;7.188;2022-09-03T20:55:35;17.90;99.90
9941;DHT22;5009;50.656;7.188;2022-09-03T20:58:33;18.00;99.90
9941;DHT22;5009;50.656;7.188;2022-09-03T21:01:07;18.00;99.90
9941;DHT22;5009;50.656;7.188;2022-09-03T21:06:25;17.90;99.90
9941;DHT22;5009;50.656;7.188;2022-09-03T21:14:39;17.90;99.90
9941;DHT22;5009;50.656;7.188;2022-09-03T21:17:37;17.90;99.90
9941;DHT22;5009;50.656;7.188;2022-09-03T21:25:41;17.90;99.90
9941;DHT22;5009;50.656;7.188;2022-09-03T21:30:47;17.90;99.90
9941;DHT22;5009;50.656;7.188;2022-09-03T21:33:20;17.90;99.90
9941;DHT22;5009;50.656;7.188;2022-09-03T21:35:57;17.80;99.90
9941;DHT22;5009;50.656;7.188;2022-09-03T21:38:26;17.80;99.90
9941;DHT22;5009;50.656;7.188;2022-09-03T21:41:29;17.80;99.90
9941;DHT22;5009;50.656;7.188;2022-09-03T21:44:04;17.80;99.90
9941;DHT22;5009;50.656;7.188;2022-09-03T21:46:50;17.80;99.90
9941;DHT22;5009;50.656;7.188;2022-09-03T21:49:24;17.70;99.90
9941;DHT22;5009;50.656;7.188;2022-09-03T21:52:06;17.70;99.90
9941;DHT22;5009;50.656;7.188;2022-09-03T21:54:33;17.70;99.90
9941;DHT22;5009;50.656;7.188;2022-09-03T21:57:41;17.70;99.90
9941;DHT22;5009;50.656;7.188;2022-09-03T22:00:18;17.70;99.90
9941;DHT22;5009;50.656;7.188;2022-09-03T22:02:54;17.70;99.90
9941;DHT22;5009;50.656;7.188;2022-09-03T22:05:23;17.70;99.90